createdAt,value
2023-09-22T00:00:17.037Z,91310.53
2023-09-22T00:02:46.801Z,91325.16
2023-09-22T00:05:16.033Z,91331.22
2023-09-22T00:07:46.633Z,91326.88
2023-09-22T00:10:15.241Z,91327.81
2023-09-22T00:12:44.391Z,91319.66
2023-09-22T00:15:13.095Z,91307.13
2023-09-22T00:17:41.684Z,91317.56
2023-09-22T00:20:14.443Z,91316.41
2023-09-22T00:22:43.560Z,91312.06
2023-09-22T00:25:13.951Z,91305.00
2023-09-22T00:27:42.680Z,91305.13
2023-09-22T00:30:12.212Z,91314.56
2023-09-22T00:32:42.151Z,91320.94
2023-09-22T00:35:13.051Z,91323.78
2023-09-22T00:37:42.113Z,91325.16
2023-09-22T00:40:14.156Z,91321.41
2023-09-22T00:42:42.915Z,91303.81
2023-09-22T00:45:12.111Z,91322.41
2023-09-22T00:47:41.226Z,91334.78
2023-09-22T00:50:11.561Z,91334.44
2023-09-22T00:52:41.068Z,91339.66
2023-09-22T00:55:12.280Z,91354.00
2023-09-22T00:57:41.842Z,91347.31
2023-09-22T01:00:12.915Z,91340.53
2023-09-22T01:05:34.396Z,91349.63
2023-09-22T01:08:02.936Z,91342.66
2023-09-22T01:10:39.015Z,91347.78
2023-09-22T01:13:08.170Z,91335.09
2023-09-22T01:15:38.832Z,91338.81
2023-09-22T01:18:07.675Z,91343.56
2023-09-22T01:20:42.960Z,91322.53
2023-09-22T01:23:14.538Z,91333.66
2023-09-22T01:25:43.582Z,91306.31
2023-09-22T01:28:13.418Z,91297.72
2023-09-22T01:30:42.415Z,91309.59
2023-09-22T01:33:11.366Z,91319.69
2023-09-22T01:35:40.364Z,91314.94
2023-09-22T01:38:15.500Z,91319.00
2023-09-22T01:40:44.956Z,91328.38
2023-09-22T01:43:15.747Z,91326.34
2023-09-22T01:46:03.424Z,91319.69
2023-09-22T01:48:50.688Z,91302.00
2023-09-22T01:51:40.059Z,91326.16
2023-09-22T01:54:28.698Z,91325.38
2023-09-22T01:57:17.386Z,91332.78
2023-09-22T02:00:11.655Z,91327.19
2023-09-22T02:02:59.107Z,91328.94
2023-09-22T02:05:46.327Z,91331.88
2023-09-22T02:08:33.569Z,91332.81
2023-09-22T02:11:22.534Z,91339.72
2023-09-22T02:14:10.437Z,91329.38
2023-09-22T02:16:57.276Z,91340.06
2023-09-22T02:19:45.090Z,91327.50
2023-09-22T02:22:32.488Z,91319.81
2023-09-22T02:25:01.040Z,91305.00
2023-09-22T02:27:30.985Z,91299.28
2023-09-22T02:29:59.497Z,91296.69
2023-09-22T02:32:28.313Z,91305.00
2023-09-22T02:34:57.144Z,91300.66
2023-09-22T02:37:25.994Z,91312.28
2023-09-22T02:39:54.563Z,91309.59
2023-09-22T02:42:23.392Z,91306.50
2023-09-22T02:44:53.360Z,91312.63
2023-09-22T02:47:22.131Z,91310.91
2023-09-22T02:49:51.286Z,91314.56
2023-09-22T02:52:19.816Z,91319.50
2023-09-22T02:54:48.612Z,91339.97
2023-09-22T02:57:17.775Z,91337.44
2023-09-22T02:59:46.289Z,91340.97
2023-09-22T03:02:16.422Z,91346.38
2023-09-22T03:04:45.223Z,91337.13
2023-09-22T03:07:13.998Z,91341.31
2023-09-22T03:09:42.626Z,91344.97
2023-09-22T03:12:11.529Z,91343.28
2023-09-22T03:14:40.037Z,91335.03
2023-09-22T03:17:10.946Z,91326.94
2023-09-22T03:19:40.813Z,91318.28
2023-09-22T03:22:09.295Z,91310.28
2023-09-22T03:24:37.852Z,91301.41
2023-09-22T03:27:06.375Z,91312.53
2023-09-22T03:29:34.875Z,91318.41
2023-09-22T03:32:03.505Z,91335.28
2023-09-22T03:34:32.043Z,91321.97
2023-09-22T03:37:02.174Z,91300.63
2023-09-22T03:39:32.089Z,91311.69
2023-09-22T03:42:00.684Z,91329.75
2023-09-22T03:44:29.286Z,91325.44
2023-09-22T03:46:58.024Z,91313.91
2023-09-22T03:49:26.565Z,91312.09
2023-09-22T03:51:55.553Z,91312.44
2023-09-22T03:54:25.641Z,91312.44
2023-09-22T03:56:54.200Z,91310.47
2023-09-22T03:59:22.721Z,91322.13
2023-09-22T04:01:52.137Z,91327.44
2023-09-22T04:04:20.782Z,91340.38
2023-09-22T04:06:49.622Z,91340.50
2023-09-22T04:09:18.148Z,91321.94
2023-09-22T04:11:48.356Z,91318.56
2023-09-22T04:14:16.876Z,91322.13
2023-09-22T04:16:45.572Z,91318.47
2023-09-22T04:19:14.723Z,91328.63
2023-09-22T04:21:47.398Z,91342.91
2023-09-22T04:24:16.587Z,91351.22
2023-09-22T04:26:45.142Z,91332.03
2023-09-22T04:29:15.471Z,91337.13
2023-09-22T04:31:44.406Z,91324.53
2023-09-22T04:34:13.767Z,91332.78
2023-09-22T04:36:42.919Z,91340.91
2023-09-22T04:39:11.968Z,91343.72
2023-09-22T04:41:40.567Z,91343.28
2023-09-22T04:44:09.336Z,91345.66
2023-09-22T04:46:39.306Z,91357.69
2023-09-22T04:49:08.282Z,91352.59
2023-09-22T04:51:37.234Z,91354.31
2023-09-22T04:54:06.876Z,91359.63
2023-09-22T04:56:35.410Z,91358.81
2023-09-22T04:59:05.084Z,91368.34
2023-09-22T05:01:33.963Z,91368.66
2023-09-22T05:04:04.565Z,91374.06
2023-09-22T05:06:33.295Z,91368.31
2023-09-22T05:09:01.885Z,91366.81
2023-09-22T05:11:30.413Z,91379.69
2023-09-22T05:13:58.968Z,91398.28
2023-09-22T05:16:27.521Z,91397.38
2023-09-22T05:18:56.316Z,91396.66
2023-09-22T05:21:26.751Z,91402.09
2023-09-22T05:23:55.555Z,91405.75
2023-09-22T05:26:24.267Z,91416.31
2023-09-22T05:28:52.966Z,91426.66
2023-09-22T05:31:21.713Z,91421.50
2023-09-22T05:33:50.441Z,91419.06
2023-09-22T05:36:19.269Z,91419.69
2023-09-22T05:38:49.188Z,91427.16
2023-09-22T05:41:17.701Z,91440.09
2023-09-22T05:43:46.232Z,91439.50
2023-09-22T05:46:14.751Z,91439.16
2023-09-22T05:48:43.746Z,91434.91
2023-09-22T05:51:13.435Z,91439.06
2023-09-22T05:53:41.954Z,91436.97
2023-09-22T05:56:13.425Z,91439.75
2023-09-22T05:58:42.603Z,91448.44
2023-09-22T06:01:12.802Z,91439.69
2023-09-22T06:03:43.699Z,91436.59
2023-09-22T06:06:14.429Z,91432.81
2023-09-22T06:08:46.663Z,91444.66
2023-09-22T06:11:17.928Z,91444.22
2023-09-22T06:13:46.448Z,91431.84
2023-09-22T06:16:15.087Z,91440.31
2023-09-22T06:18:43.941Z,91430.66
2023-09-22T06:21:12.967Z,91421.47
2023-09-22T06:23:41.483Z,91426.28
2023-09-22T06:26:11.353Z,91414.63
2023-09-22T06:28:41.255Z,91417.94
2023-09-22T06:31:10.247Z,91407.22
2023-09-22T06:33:38.945Z,91409.88
2023-09-22T06:36:08.133Z,91412.19
2023-09-22T06:38:36.725Z,91405.75
2023-09-22T06:41:06.373Z,91412.69
2023-09-22T06:43:37.602Z,91416.22
2023-09-22T06:46:25.133Z,91409.22
2023-09-22T06:48:53.931Z,91401.75
2023-09-22T06:51:22.537Z,91399.47
2023-09-22T06:53:51.222Z,91411.63
2023-09-22T06:56:19.860Z,91410.59
2023-09-22T06:58:49.199Z,91433.31
2023-09-22T07:01:19.491Z,91433.09
2023-09-22T07:03:51.094Z,91419.03
2023-09-22T07:06:21.201Z,91444.19
2023-09-22T07:08:49.903Z,91441.28
2023-09-22T07:11:20.110Z,91435.72
2023-09-22T07:13:48.647Z,91430.00
2023-09-22T07:16:17.248Z,91434.78
2023-09-22T07:18:46.155Z,91431.66
2023-09-22T07:21:16.264Z,91440.94
2023-09-22T07:23:46.175Z,91428.53
2023-09-22T07:26:14.714Z,91438.66
2023-09-22T07:28:43.511Z,91431.03
2023-09-22T07:31:13.731Z,91434.06
2023-09-22T07:33:44.707Z,91446.53
2023-09-22T07:36:16.917Z,91454.69
2023-09-22T07:38:46.523Z,91456.09
2023-09-22T07:41:15.417Z,91453.25
2023-09-22T07:43:44.545Z,91464.56
2023-09-22T07:46:13.221Z,91459.66
2023-09-22T07:48:41.799Z,91465.75
2023-09-22T07:51:10.364Z,91459.38
2023-09-22T07:53:40.295Z,91460.28
2023-09-22T07:56:13.671Z,91462.22
2023-09-22T07:58:43.316Z,91450.88
2023-09-22T08:01:16.986Z,91461.53
2023-09-22T08:03:46.275Z,91487.53
2023-09-22T08:06:15.136Z,91498.88
2023-09-22T08:08:46.237Z,91488.97
2023-09-22T08:11:15.416Z,91499.78
2023-09-22T08:13:43.996Z,91498.25
2023-09-22T08:16:13.138Z,91494.41
2023-09-22T08:18:42.046Z,91511.41
2023-09-22T08:21:11.271Z,91523.75
2023-09-22T08:23:49.190Z,91510.88
2023-09-22T08:26:20.207Z,91521.53
2023-09-22T08:28:50.081Z,91515.97
2023-09-22T08:31:18.654Z,91506.06
2023-09-22T08:33:47.318Z,91508.84
2023-09-22T08:36:17.325Z,91502.56
2023-09-22T08:38:47.708Z,91499.25
2023-09-22T08:41:16.682Z,91508.09
2023-09-22T08:43:47.427Z,91511.56
2023-09-22T08:46:17.440Z,91516.44
2023-09-22T08:48:46.409Z,91520.09
2023-09-22T08:51:15.665Z,91509.00
2023-09-22T08:53:45.238Z,91506.38
2023-09-22T08:56:15.575Z,91509.88
2023-09-22T08:58:45.859Z,91512.16
2023-09-22T09:01:14.618Z,91515.72
2023-09-22T09:03:43.658Z,91512.84
2023-09-22T09:06:15.566Z,91517.25
2023-09-22T09:08:45.021Z,91522.47
2023-09-22T09:11:13.670Z,91520.50
2023-09-22T09:13:42.261Z,91524.06
2023-09-22T09:16:13.361Z,91516.22
2023-09-22T09:18:41.961Z,91527.06
2023-09-22T09:21:12.829Z,91535.34
2023-09-22T09:23:54.389Z,91539.19
2023-09-22T09:26:26.532Z,91532.56
2023-09-22T09:28:55.641Z,91541.78
2023-09-22T09:31:46.753Z,91512.72
2023-09-22T09:34:16.277Z,91539.63
2023-09-22T09:36:45.010Z,91529.41
2023-09-22T09:39:16.680Z,91519.34
2023-09-22T09:41:45.854Z,91510.75
2023-09-22T09:44:14.647Z,91509.56
2023-09-22T09:46:46.305Z,91505.53
2023-09-22T09:49:16.026Z,91511.97
2023-09-22T09:51:49.764Z,91511.16
2023-09-22T09:54:22.147Z,91516.94
2023-09-22T09:56:54.061Z,91529.38
2023-09-22T09:59:23.377Z,91533.19
2023-09-22T10:01:53.865Z,91525.41
2023-09-22T10:04:23.831Z,91529.03
2023-09-22T10:06:54.301Z,91525.91
2023-09-22T10:09:23.362Z,91521.72
2023-09-22T10:11:52.922Z,91529.72
2023-09-22T10:14:48.166Z,91528.63
2023-09-22T10:17:26.609Z,91529.34
2023-09-22T10:19:55.571Z,91537.88
2023-09-22T10:22:27.510Z,91525.34
2023-09-22T10:25:33.719Z,91519.25
2023-09-22T10:28:07.981Z,91532.19
2023-09-22T10:31:05.107Z,91531.69
2023-09-22T10:33:35.040Z,91532.06
2023-09-22T10:36:05.737Z,91536.16
2023-09-22T10:38:56.937Z,91522.28
2023-09-22T10:41:25.450Z,91535.56
2023-09-22T10:44:03.518Z,91527.31
2023-09-22T10:46:32.889Z,91540.84
2023-09-22T10:49:03.140Z,91542.19
2023-09-22T10:51:45.058Z,91546.59
2023-09-22T10:54:13.627Z,91533.69
2023-09-22T10:56:42.459Z,91527.06
2023-09-22T10:59:12.648Z,91533.94
2023-09-22T11:01:48.074Z,91534.22
2023-09-22T11:04:19.563Z,91520.03
2023-09-22T11:06:48.749Z,91527.25
2023-09-22T11:09:17.296Z,91523.13
2023-09-22T11:11:48.829Z,91543.03
2023-09-22T11:14:22.442Z,91544.38
2023-09-22T11:16:51.474Z,91554.84
2023-09-22T11:19:22.971Z,91548.91
2023-09-22T11:21:51.553Z,91547.69
2023-09-22T11:24:20.131Z,91545.91
2023-09-22T11:26:48.907Z,91552.69
2023-09-22T11:29:19.031Z,91537.88
2023-09-22T11:31:54.661Z,91528.84
2023-09-22T11:34:27.054Z,91527.25
2023-09-22T11:36:56.584Z,91535.16
2023-09-22T11:39:31.255Z,91523.53
2023-09-22T11:42:00.324Z,91528.31
2023-09-22T11:44:29.075Z,91525.16
2023-09-22T11:46:57.855Z,91521.25
2023-09-22T11:49:38.053Z,91513.63
2023-09-22T11:52:07.092Z,91509.97
2023-09-22T11:54:37.152Z,91515.75
2023-09-22T11:57:05.901Z,91516.38
2023-09-22T11:59:36.156Z,91503.09
2023-09-22T12:02:07.743Z,91505.41
2023-09-22T12:04:39.826Z,91511.81
2023-09-22T12:07:09.536Z,91510.13
2023-09-22T12:09:39.584Z,91510.06
2023-09-22T12:12:08.441Z,91510.91
2023-09-22T12:14:37.187Z,91512.94
2023-09-22T12:17:05.784Z,91507.78
2023-09-22T12:19:34.587Z,91505.63
2023-09-22T12:22:04.520Z,91500.44
2023-09-22T12:24:33.058Z,91496.56
2023-09-22T12:27:01.590Z,91492.00
2023-09-22T12:29:30.574Z,91509.22
2023-09-22T12:32:00.919Z,91500.97
2023-09-22T12:34:29.554Z,91510.34
2023-09-22T12:36:58.374Z,91498.34
2023-09-22T12:39:29.072Z,91499.47
2023-09-22T12:41:57.592Z,91508.53
2023-09-22T12:44:26.364Z,91496.00
2023-09-22T12:46:55.138Z,91489.59
2023-09-22T12:49:24.421Z,91494.34
2023-09-22T12:51:53.034Z,91495.72
2023-09-22T12:54:22.312Z,91495.53
2023-09-22T12:56:52.346Z,91497.66
2023-09-22T12:59:20.912Z,91492.31
2023-09-22T13:01:49.579Z,91486.13
2023-09-22T13:04:18.367Z,91488.09
2023-09-22T13:06:47.249Z,91485.06
2023-09-22T13:09:16.622Z,91484.56
2023-09-22T13:11:45.123Z,91488.94
2023-09-22T13:14:15.045Z,91475.00
2023-09-22T13:16:43.932Z,91475.44
2023-09-22T13:19:13.069Z,91468.81
2023-09-22T13:21:41.651Z,91464.59
2023-09-22T13:24:10.298Z,91466.66
2023-09-22T13:26:38.794Z,91470.19
2023-09-22T13:29:07.351Z,91459.72
2023-09-22T13:31:37.396Z,91466.25
2023-09-22T13:34:06.321Z,91457.94
2023-09-22T13:36:34.890Z,91458.56
2023-09-22T13:39:04.980Z,91452.66
2023-09-22T13:41:33.500Z,91471.13
2023-09-22T13:44:02.345Z,91459.59
2023-09-22T13:46:31.027Z,91460.50
2023-09-22T13:49:01.056Z,91446.84
2023-09-22T13:51:32.795Z,91453.13
2023-09-22T13:54:01.407Z,91444.09
2023-09-22T13:56:29.924Z,91450.53
2023-09-22T13:58:59.718Z,91454.22
2023-09-22T14:01:29.073Z,91463.69
2023-09-22T14:03:59.224Z,91450.19
2023-09-22T14:06:29.685Z,91447.41
2023-09-22T14:08:59.646Z,91458.13
2023-09-22T14:11:28.311Z,91456.75
2023-09-22T14:13:56.861Z,91455.88
2023-09-22T14:16:29.304Z,91459.09
2023-09-22T14:18:58.543Z,91467.78
2023-09-22T14:21:28.659Z,91475.06
2023-09-22T14:23:57.383Z,91478.84
2023-09-22T14:26:25.885Z,91471.72
2023-09-22T14:28:55.166Z,91464.72
2023-09-22T14:31:24.945Z,91469.75
2023-09-22T14:33:53.596Z,91468.41
2023-09-22T14:36:22.169Z,91469.16
2023-09-22T14:38:52.466Z,91465.69
2023-09-22T14:41:21.175Z,91482.78
2023-09-22T14:43:49.998Z,91466.41
2023-09-22T14:46:18.955Z,91469.28
2023-09-22T14:48:48.234Z,91469.91
2023-09-22T14:51:17.409Z,91477.19
2023-09-22T14:53:46.309Z,91475.97
2023-09-22T14:56:16.408Z,91482.00
2023-09-22T14:58:45.197Z,91479.75
2023-09-22T15:01:14.216Z,91485.94
2023-09-22T15:03:43.024Z,91478.84
2023-09-22T15:06:11.649Z,91497.59
2023-09-22T15:08:40.540Z,91491.38
2023-09-22T15:11:09.047Z,91488.59
2023-09-22T15:13:38.967Z,91493.66
2023-09-22T15:16:08.535Z,91494.50
2023-09-22T15:18:38.916Z,91486.47
2023-09-22T15:21:10.218Z,91489.16
2023-09-22T15:23:39.412Z,91495.34
2023-09-22T15:26:10.521Z,91496.56
2023-09-22T15:28:42.193Z,91498.09
2023-09-22T15:31:11.782Z,91501.06
2023-09-22T15:33:40.546Z,91501.84
2023-09-22T15:36:09.463Z,91507.06
2023-09-22T15:38:38.757Z,91507.56
2023-09-22T15:41:09.566Z,91513.88
2023-09-22T15:43:38.705Z,91515.84
2023-09-22T15:46:09.842Z,91519.66
2023-09-22T15:48:38.533Z,91520.75
2023-09-22T15:51:07.670Z,91512.97
2023-09-22T15:53:37.337Z,91516.84
2023-09-22T15:56:07.752Z,91522.09
2023-09-22T15:58:36.776Z,91509.94
2023-09-22T16:01:07.069Z,91513.97
2023-09-22T16:03:35.819Z,91510.88
2023-09-22T16:06:07.676Z,91501.38
2023-09-22T16:08:37.955Z,91502.31
2023-09-22T16:11:10.094Z,91498.63
2023-09-22T16:13:39.762Z,91502.84
2023-09-22T16:16:10.807Z,91501.44
2023-09-22T16:18:40.280Z,91502.59
2023-09-22T16:21:09.834Z,91513.63
2023-09-22T16:23:38.640Z,91512.38
2023-09-22T16:26:09.387Z,91520.63
2023-09-22T16:28:39.613Z,91522.94
2023-09-22T16:31:10.075Z,91529.41
2023-09-22T16:33:38.909Z,91523.66
2023-09-22T16:36:08.627Z,91540.72
2023-09-22T16:38:37.649Z,91531.69
2023-09-22T16:41:09.550Z,91538.22
2023-09-22T16:43:42.212Z,91540.81
2023-09-22T16:46:12.442Z,91549.38
2023-09-22T16:48:41.281Z,91555.16
2023-09-22T16:51:10.057Z,91582.38
2023-09-22T16:53:38.661Z,91635.47
2023-09-22T16:56:10.644Z,91631.19
2023-09-22T16:58:42.043Z,91635.63
2023-09-22T17:01:12.580Z,91619.63
2023-09-22T17:03:41.419Z,91608.97
2023-09-22T17:06:10.183Z,91610.00
2023-09-22T17:08:39.820Z,91607.22
2023-09-22T17:11:09.276Z,91609.50
2023-09-22T17:13:37.859Z,91611.50
2023-09-22T17:16:07.286Z,91614.63
2023-09-22T17:18:38.455Z,91613.53
2023-09-22T17:21:20.732Z,91611.00
2023-09-22T17:23:56.101Z,91603.25
2023-09-22T17:26:25.188Z,91601.94
2023-09-22T17:28:54.989Z,91603.50
2023-09-22T17:31:24.148Z,91606.09
2023-09-22T17:33:54.970Z,91607.13
2023-09-22T17:36:24.663Z,91620.31
2023-09-22T17:38:53.247Z,91620.06
2023-09-22T17:41:26.501Z,91619.78
2023-09-22T17:43:55.169Z,91629.13
2023-09-22T17:46:26.249Z,91626.59
2023-09-22T17:48:56.810Z,91631.91
2023-09-22T17:51:25.314Z,91637.00
2023-09-22T17:53:53.833Z,91643.28
2023-09-22T17:56:22.651Z,91648.00
2023-09-22T17:58:51.138Z,91650.22
2023-09-22T18:01:20.115Z,91662.69
2023-09-22T18:03:49.316Z,91668.38
2023-09-22T18:06:19.442Z,91676.94
2023-09-22T18:08:49.009Z,91674.97
2023-09-22T18:11:17.738Z,91672.53
2023-09-22T18:13:46.703Z,91685.78
2023-09-22T18:16:15.606Z,91685.13
2023-09-22T18:18:44.453Z,91692.22
2023-09-22T18:21:13.159Z,91686.22
2023-09-22T18:23:56.768Z,91692.25
2023-09-22T18:26:32.098Z,91697.28
2023-09-22T18:29:00.774Z,91706.09
2023-09-22T18:31:30.427Z,91698.53
2023-09-22T18:34:01.724Z,91705.09
2023-09-22T18:36:30.602Z,91707.00
2023-09-22T18:39:00.518Z,91707.44
2023-09-22T18:41:29.200Z,91698.28
2023-09-22T18:43:59.461Z,91697.66
2023-09-22T18:46:28.440Z,91699.94
2023-09-22T18:48:57.361Z,91692.19
2023-09-22T18:51:25.938Z,91700.69
2023-09-22T18:53:54.517Z,91698.53
2023-09-22T18:56:24.467Z,91707.50
2023-09-22T18:58:52.962Z,91705.06
2023-09-22T19:01:23.722Z,91699.09
2023-09-22T19:03:52.804Z,91693.56
2023-09-22T19:06:21.545Z,91704.16
2023-09-22T19:08:50.561Z,91708.28
2023-09-22T19:11:20.832Z,91702.09
2023-09-22T19:13:50.820Z,91703.66
2023-09-22T19:16:20.862Z,91706.28
2023-09-22T19:18:49.623Z,91718.78
2023-09-22T19:21:27.268Z,91716.53
2023-09-22T19:23:55.938Z,91729.72
2023-09-22T19:26:24.466Z,91736.16
2023-09-22T19:28:54.589Z,91746.44
2023-09-22T19:31:23.172Z,91747.66
2023-09-22T19:33:51.824Z,91745.97
2023-09-22T19:36:21.186Z,91747.81
2023-09-22T19:38:49.715Z,91755.69
2023-09-22T19:41:20.286Z,91763.19
2023-09-22T19:43:49.809Z,91767.72
2023-09-22T19:46:19.998Z,91775.28
2023-09-22T19:48:48.775Z,91763.09
2023-09-22T19:51:17.388Z,91770.63
2023-09-22T19:53:46.170Z,91763.59
2023-09-22T19:56:15.827Z,91775.34
2023-09-22T19:58:44.888Z,91770.78
2023-09-22T20:01:13.801Z,91772.84
2023-09-22T20:03:45.657Z,91780.16
2023-09-22T20:06:14.551Z,91786.13
2023-09-22T20:08:43.242Z,91777.97
2023-09-22T20:11:12.463Z,91770.69
2023-09-22T20:13:41.948Z,91773.72
2023-09-22T20:16:14.038Z,91774.56
2023-09-22T20:18:44.634Z,91780.88
2023-09-22T20:21:13.277Z,91779.13
2023-09-22T20:23:42.016Z,91779.13
2023-09-22T20:26:12.019Z,91792.09
2023-09-22T20:28:40.695Z,91794.91
2023-09-22T20:31:10.235Z,91791.06
2023-09-22T20:33:38.895Z,91801.47
2023-09-22T20:36:12.155Z,91804.25
2023-09-22T20:38:45.954Z,91810.38
2023-09-22T20:41:18.557Z,91816.72
2023-09-22T20:43:51.577Z,91800.38
2023-09-22T20:46:23.544Z,91810.69
2023-09-22T20:48:52.918Z,91806.78
2023-09-22T20:51:24.635Z,91821.88
2023-09-22T20:53:53.357Z,91829.09
2023-09-22T20:56:22.562Z,91836.81
2023-09-22T20:58:52.708Z,91840.38
2023-09-22T21:01:22.432Z,91847.03
2023-09-22T21:03:51.544Z,91838.31
2023-09-22T21:06:20.073Z,91851.44
2023-09-22T21:08:49.996Z,91864.09
2023-09-22T21:11:18.570Z,91861.47
2023-09-22T21:13:47.169Z,91866.63
2023-09-22T21:16:16.573Z,91868.22
2023-09-22T21:18:45.355Z,91875.97
2023-09-22T21:21:14.876Z,91879.19
2023-09-22T21:23:43.895Z,91887.22
2023-09-22T21:26:16.041Z,91891.19
2023-09-22T21:28:44.866Z,91899.94
2023-09-22T21:31:13.693Z,91900.72
2023-09-22T21:33:42.291Z,91900.84
2023-09-22T21:36:12.382Z,91900.94
2023-09-22T21:38:41.123Z,91902.34
2023-09-22T21:41:11.299Z,91905.97
2023-09-22T21:43:42.153Z,91904.13
2023-09-22T21:46:12.346Z,91909.28
2023-09-22T21:48:41.116Z,91912.34
2023-09-22T21:51:11.365Z,91911.06
2023-09-22T21:53:42.044Z,91919.88
2023-09-22T21:56:10.907Z,91920.13
2023-09-22T21:58:40.983Z,91929.56
2023-09-22T22:01:11.645Z,91937.50
2023-09-22T22:03:44.390Z,91929.75
2023-09-22T22:06:13.541Z,91936.25
2023-09-22T22:08:42.705Z,91945.78
2023-09-22T22:11:11.952Z,91937.03
2023-09-22T22:13:43.824Z,91948.50
2023-09-22T22:16:14.347Z,91940.97
2023-09-22T22:18:43.464Z,91942.22
2023-09-22T22:21:13.085Z,91945.56
2023-09-22T22:23:43.903Z,91950.09
2023-09-22T22:26:18.223Z,91956.06
2023-09-22T22:28:48.461Z,91954.63
2023-09-22T22:31:19.526Z,91946.81
2023-09-22T22:33:48.864Z,91948.88
2023-09-22T22:36:17.683Z,91953.97
2023-09-22T22:38:46.529Z,91958.34
2023-09-22T22:41:15.196Z,91960.94
2023-09-22T22:43:43.886Z,91957.88
2023-09-22T22:46:13.960Z,91959.47
2023-09-22T22:48:42.513Z,91972.41
2023-09-22T22:51:11.322Z,91969.66
2023-09-22T22:53:39.882Z,91973.84
2023-09-22T22:56:08.815Z,91986.78
2023-09-22T22:58:38.677Z,91980.63
2023-09-22T23:01:07.885Z,91985.03
2023-09-22T23:03:38.163Z,91994.59
2023-09-22T23:06:09.344Z,91993.75
2023-09-22T23:08:40.166Z,92002.41
2023-09-22T23:11:13.137Z,92006.34
2023-09-22T23:13:42.836Z,92009.72
2023-09-22T23:16:13.143Z,92004.53
2023-09-22T23:18:45.986Z,92006.78
2023-09-22T23:21:15.929Z,92008.53
2023-09-22T23:23:45.272Z,92008.53
2023-09-22T23:26:15.539Z,92010.78
2023-09-22T23:28:44.193Z,92022.19
2023-09-22T23:31:12.723Z,92020.50
2023-09-22T23:33:42.865Z,92014.88
2023-09-22T23:36:14.562Z,92018.03
2023-09-22T23:38:44.318Z,92015.53
2023-09-22T23:41:12.999Z,92017.81
2023-09-22T23:43:44.346Z,92025.38
2023-09-22T23:46:14.961Z,92023.25
2023-09-22T23:48:45.330Z,92024.41
2023-09-22T23:51:14.058Z,92032.66
2023-09-22T23:53:42.964Z,92041.66
2023-09-22T23:56:11.536Z,92035.41
2023-09-22T23:58:40.356Z,92046.03
